Time;durP1;ratioP1;P1;durP2;ratioP2;P2;SDS_P1;SDS_P2;PMS_P1;PMS_P2;Temp;Humidity;BMP_temperature;BMP_pressure;BME280_temperature;BME280_humidity;BME280_pressure;Samples;Min_cycle;Max_cycle;Signal;HPM_P1;HPM_P2
2021/01/07 00:00:17;;;;;;;2.90;1.50;;;;;;;17.05;49.52;101575.38;6274147;22;20011;-81
2021/01/07 00:02:42;;;;;;;3.63;1.30;;;;;;;17.05;49.40;101571.91;6321888;22;20004;-81
2021/01/07 00:05:08;;;;;;;3.13;1.60;;;;;;;17.05;49.40;101566.69;6268676;22;20010;-81
2021/01/07 00:07:35;;;;;;;4.70;1.63;;;;;;;17.05;49.43;101567.56;6293651;22;20033;-81
2021/01/07 00:10:00;;;;;;;2.63;1.50;;;;;;;17.04;49.20;101568.41;6265470;22;20412;-80
2021/01/07 00:12:27;;;;;;;4.97;1.30;;;;;;;17.04;49.20;101563.22;6289467;22;20022;-78
2021/01/07 00:14:52;;;;;;;3.83;1.40;;;;;;;17.05;49.35;101566.69;6238682;22;20008;-79
2021/01/07 00:17:17;;;;;;;2.40;1.40;;;;;;;17.03;49.34;101552.81;6265080;22;20008;-80
2021/01/07 00:19:43;;;;;;;2.42;1.55;;;;;;;17.04;49.44;101555.41;6262103;22;20018;-80
2021/01/07 00:22:08;;;;;;;4.75;1.35;;;;;;;17.01;49.43;101555.41;6314313;22;20033;-81
2021/01/07 00:24:33;;;;;;;2.08;1.23;;;;;;;17.02;49.25;101557.13;6286432;22;20007;-78
2021/01/07 00:26:59;;;;;;;1.48;1.10;;;;;;;17.01;49.17;101555.41;6313079;22;20010;-78
2021/01/07 00:29:24;;;;;;;2.00;1.20;;;;;;;17.02;49.34;101548.47;6262955;22;20015;-80
2021/01/07 00:31:50;;;;;;;2.00;1.20;;;;;;;17.02;48.90;101545.88;6317191;22;20059;-79
2021/01/07 00:34:15;;;;;;;3.22;1.30;;;;;;;17.00;49.42;101543.25;6262686;22;20003;-79
2021/01/07 00:36:40;;;;;;;3.30;1.27;;;;;;;17.01;49.15;101546.75;6317822;22;20023;-79
2021/01/07 00:39:06;;;;;;;3.67;1.33;;;;;;;17.00;48.97;101548.44;6318679;22;20004;-78
2021/01/07 00:41:43;;;;;;;2.40;1.30;;;;;;;16.98;49.01;101541.50;6260266;22;20003;-80
2021/01/07 01:03:37;;;;;;;1.63;1.13;;;;;;;16.96;49.06;101530.25;6257558;22;20026;-79
2021/01/07 01:06:03;;;;;;;2.15;1.17;;;;;;;16.96;48.82;101541.53;6255459;22;20023;-79
2021/01/07 01:08:31;;;;;;;2.17;1.20;;;;;;;16.98;48.97;101538.91;6232876;22;20307;-80
2021/01/07 01:11:03;;;;;;;2.03;1.17;;;;;;;16.97;48.87;101534.59;6233560;22;20042;-79
2021/01/07 01:13:29;;;;;;;2.15;1.10;;;;;;;16.97;48.79;101537.19;6257483;22;20106;-78
2021/01/07 01:15:54;;;;;;;2.25;1.10;;;;;;;16.97;48.94;101529.38;6200554;23;20004;-77
2021/01/07 01:18:20;;;;;;;2.63;1.20;;;;;;;16.97;48.87;101532.84;6199197;23;20099;-77
2021/01/07 01:20:45;;;;;;;1.60;0.90;;;;;;;16.96;48.88;101530.25;6224525;23;20367;-78
2021/01/07 01:23:17;;;;;;;1.40;1.00;;;;;;;16.95;48.99;101520.72;6225107;23;20012;-79
2021/01/07 01:25:42;;;;;;;1.33;0.93;;;;;;;16.94;48.82;101521.56;6199925;23;20008;-79
2021/01/07 01:28:12;;;;;;;1.38;0.90;;;;;;;16.94;48.89;101524.16;6202402;23;20008;-79
2021/01/07 01:30:44;;;;;;;1.35;1.10;;;;;;;16.95;48.89;101523.31;6202167;23;20126;-79
2021/01/07 01:33:10;;;;;;;1.88;1.08;;;;;;;16.94;48.82;101519.84;6227227;23;20043;-80
2021/01/07 01:35:35;;;;;;;1.67;1.10;;;;;;;16.94;48.82;101514.66;6203603;23;20328;-79
2021/01/07 01:38:03;;;;;;;1.75;1.00;;;;;;;16.95;48.68;101518.13;6257755;23;20016;-76
2021/01/07 01:40:32;;;;;;;1.63;1.10;;;;;;;16.94;48.77;101517.25;6256718;23;20008;-78
2021/01/07 01:42:58;;;;;;;2.13;1.00;;;;;;;16.94;48.89;101517.25;6228409;23;20008;-78
2021/01/07 01:45:23;;;;;;;2.17;1.00;;;;;;;16.94;48.74;101519.84;6254877;23;20016;-78
2021/01/07 01:47:51;;;;;;;1.73;0.90;;;;;;;16.94;48.75;101518.97;6229966;23;20084;-77
2021/01/07 01:50:16;;;;;;;1.40;0.82;;;;;;;16.92;48.78;101513.78;6255839;23;20011;-77
2021/01/07 01:52:42;;;;;;;2.58;1.00;;;;;;;16.93;48.77;101519.84;6207986;23;20000;-78
2021/01/07 01:55:07;;;;;;;2.15;0.88;;;;;;;16.92;48.62;101521.56;6209565;23;20385;-79
2021/01/07 01:57:33;;;;;;;1.67;1.05;;;;;;;16.93;48.71;101523.31;6261486;23;20335;-79
2021/01/07 01:59:59;;;;;;;1.65;1.00;;;;;;;16.92;48.67;101515.47;6180079;23;20016;-78
2021/01/07 02:02:24;;;;;;;1.30;0.82;;;;;;;16.91;48.68;101508.56;6256899;23;20004;-79
2021/01/07 02:04:50;;;;;;;1.55;1.00;;;;;;;16.91;48.76;101503.38;6268606;22;20489;-80
2021/01/07 02:07:22;;;;;;;1.27;0.82;;;;;;;16.91;48.79;101508.56;6232221;23;20012;-80
2021/01/07 02:09:49;;;;;;;1.50;0.90;;;;;;;16.91;48.68;101511.16;6283017;22;20006;-78
2021/01/07 02:12:14;;;;;;;1.35;0.90;;;;;;;16.90;48.44;101512.00;6257778;23;20031;-80
2021/01/07 02:14:41;;;;;;;1.65;1.00;;;;;;;16.90;48.70;101499.00;6253307;22;20080;-79
2021/01/07 02:17:07;;;;;;;1.05;0.77;;;;;;;16.89;48.76;101495.56;6254806;23;20008;-79
2021/01/07 02:19:33;;;;;;;1.35;0.90;;;;;;;16.90;48.56;101502.50;6254642;23;20107;-80
2021/01/07 02:21:59;;;;;;;1.50;0.73;;;;;;;16.88;48.38;101496.44;6228661;23;20058;-79
2021/01/07 02:24:25;;;;;;;1.60;0.80;;;;;;;16.86;48.63;101496.41;6229778;22;20024;-80
2021/01/07 02:26:51;;;;;;;1.17;0.80;;;;;;;16.89;48.57;101499.88;6279802;22;20008;-78
2021/01/07 02:29:16;;;;;;;1.90;0.95;;;;;;;16.88;48.41;101506.81;6255737;22;20016;-79
2021/01/07 02:31:42;;;;;;;1.05;0.70;;;;;;;16.88;48.66;101492.97;6254954;23;20012;-79
2021/01/07 02:34:07;;;;;;;1.25;0.90;;;;;;;16.88;48.57;101487.78;6230071;23;20056;-79
2021/01/07 02:36:33;;;;;;;1.50;0.80;;;;;;;16.88;48.69;101491.22;6229916;23;20001;-80
2021/01/07 02:38:58;;;;;;;1.00;0.63;;;;;;;16.88;48.50;101491.22;6230675;23;20004;-80
2021/01/07 02:41:24;;;;;;;1.00;0.75;;;;;;;16.87;48.43;101486.88;6281686;22;20007;-79
2021/01/07 02:43:49;;;;;;;1.35;0.95;;;;;;;16.85;48.51;101479.09;6257198;22;20008;-79
2021/01/07 02:46:15;;;;;;;1.70;0.88;;;;;;;16.86;48.54;101485.16;6231483;23;20374;-80
2021/01/07 02:48:40;;;;;;;1.45;0.90;;;;;;;16.85;48.61;101478.19;6256289;23;20008;-80
2021/01/07 02:51:06;;;;;;;1.05;0.75;;;;;;;16.85;48.43;101475.59;6256108;23;20028;-79
2021/01/07 02:53:31;;;;;;;1.33;0.75;;;;;;;16.86;48.82;101482.56;6256314;23;20008;-80
2021/01/07 02:55:56;;;;;;;1.55;0.80;;;;;;;16.86;48.27;101477.34;6255367;23;20000;-80
2021/01/07 02:58:22;;;;;;;1.13;0.75;;;;;;;16.85;48.62;101476.50;6232190;23;20009;-80
2021/01/07 03:00:47;;;;;;;0.98;0.75;;;;;;;16.85;48.43;101475.59;6256890;23;20034;-80
2021/01/07 03:03:12;;;;;;;1.33;0.80;;;;;;;16.85;48.42;101465.19;6230646;23;20435;-80
2021/01/07 03:05:38;;;;;;;1.10;0.70;;;;;;;16.84;48.28;101456.53;6230394;23;20351;-79
2021/01/07 03:08:03;;;;;;;0.95;0.60;;;;;;;16.83;48.48;101460.03;6229605;23;20094;-79
2021/01/07 03:10:29;;;;;;;1.25;0.80;;;;;;;16.82;48.46;101454.81;6205741;23;20012;-80
2021/01/07 03:12:54;;;;;;;1.00;0.75;;;;;;;16.84;48.41;101461.75;6255796;23;20008;-80
2021/01/07 03:15:20;;;;;;;1.20;0.70;;;;;;;16.84;48.32;101458.28;6231020;23;20008;-80
2021/01/07 03:17:46;;;;;;;1.60;0.70;;;;;;;16.83;48.50;101457.41;6231259;23;20008;-79
2021/01/07 03:20:14;;;;;;;1.08;0.70;;;;;;;16.81;48.31;101453.94;6257936;22;20012;-80
2021/01/07 03:22:43;;;;;;;1.45;0.60;;;;;;;16.82;48.42;101449.59;6256992;23;20008;-80
2021/01/07 03:25:10;;;;;;;1.30;0.80;;;;;;;16.81;48.32;101448.75;6257383;22;20005;-80
2021/01/07 03:27:36;;;;;;;1.40;0.68;;;;;;;16.82;48.37;101442.66;6256108;23;20004;-80
2021/01/07 03:30:06;;;;;;;1.13;0.70;;;;;;;16.83;48.51;101446.13;6257762;23;20055;-80
2021/01/07 03:32:32;;;;;;;1.20;0.63;;;;;;;16.81;48.46;101442.66;6259652;22;20079;-79
2021/01/07 03:34:57;;;;;;;0.77;0.65;;;;;;;16.82;48.43;101441.81;6258993;23;20004;-80
2021/01/07 03:37:23;;;;;;;1.00;0.60;;;;;;;16.82;48.42;101441.81;6259045;23;20050;-80
2021/01/07 03:39:48;;;;;;;0.98;0.60;;;;;;;16.82;48.34;101442.66;6232576;23;20019;-77
2021/01/07 03:42:13;;;;;;;0.90;0.68;;;;;;;16.81;48.28;101437.47;6257966;23;20031;-78
2021/01/07 03:44:39;;;;;;;1.23;0.52;;;;;;;16.81;48.30;101437.47;6259795;23;20004;-76
2021/01/07 03:47:05;;;;;;;1.05;0.65;;;;;;;16.80;48.48;101434.00;6255233;22;20004;-76
2021/01/07 03:49:30;;;;;;;0.90;0.55;;;;;;;16.80;48.68;101435.75;6259696;22;20031;-79
2021/01/07 03:51:56;;;;;;;0.85;0.60;;;;;;;16.79;48.46;101434.84;6261483;23;20051;-77
2021/01/07 03:54:21;;;;;;;1.13;0.60;;;;;;;16.78;48.37;101438.28;6266410;23;20007;-77
2021/01/07 03:59:31;;;;;;;0.50;0.50;;;;;;;16.78;48.57;101435.69;6331526;22;20034;-78
2021/01/07 04:01:56;;;;;;;0.80;0.50;;;;;;;16.80;48.29;101440.94;6332005;22;20021;-77
2021/01/07 04:04:23;;;;;;;0.93;0.68;;;;;;;16.79;48.71;101433.97;6275738;22;20007;-77
2021/01/07 04:06:51;;;;;;;0.60;0.57;;;;;;;16.77;48.33;101431.38;6302375;22;20007;-76
2021/01/07 04:09:17;;;;;;;1.05;0.70;;;;;;;16.76;48.49;101434.81;6273345;22;20010;-76
2021/01/07 04:11:43;;;;;;;1.30;0.70;;;;;;;16.77;48.35;101430.50;6293741;22;20319;-78
2021/01/07 04:14:11;;;;;;;2.17;0.70;;;;;;;16.78;48.32;101440.03;6304732;22;20014;-76
2021/01/07 04:17:02;;;;;;;0.88;0.60;;;;;;;16.79;48.47;101433.97;6290173;22;20027;-77
2021/01/07 04:19:28;;;;;;;1.20;0.70;;;;;;;16.78;48.45;101432.22;6297829;22;20015;-77
2021/01/07 04:21:55;;;;;;;1.92;0.80;;;;;;;16.77;48.33;101426.16;6298643;22;20298;-76
2021/01/07 04:24:33;;;;;;;0.40;0.40;;;;;;;16.77;48.41;101427.91;6250939;22;20008;-78
2021/01/07 04:27:04;;;;;;;0.82;0.47;;;;;;;16.77;48.46;101426.16;6303721;22;20003;-77
2021/01/07 04:29:30;;;;;;;0.60;0.47;;;;;;;16.76;48.31;101427.00;6252698;22;20012;-77
2021/01/07 04:32:03;;;;;;;0.60;0.50;;;;;;;16.77;48.57;101430.50;6303348;22;20000;-78
2021/01/07 04:34:38;;;;;;;0.73;0.50;;;;;;;16.77;48.23;101422.72;6304217;22;19983;-80
2021/01/07 04:37:11;;;;;;;1.02;0.60;;;;;;;16.78;48.51;101424.44;6301697;22;20004;-78
2021/01/07 04:39:37;;;;;;;1.30;0.65;;;;;;;16.76;48.38;101421.81;6301889;22;19996;-78
2021/01/07 04:42:03;;;;;;;0.60;0.57;;;;;;;16.78;48.29;101420.09;6275029;22;20012;-78
2021/01/07 04:44:28;;;;;;;0.63;0.50;;;;;;;16.78;48.41;101422.69;6288388;22;20079;-78
2021/01/07 04:46:54;;;;;;;2.08;0.50;;;;;;;16.79;48.65;101423.59;6290675;22;20025;-79
2021/01/07 04:49:20;;;;;;;0.32;0.32;;;;;;;16.81;48.47;101421.88;6289315;22;20007;-80
2021/01/07 04:51:45;;;;;;;1.08;0.60;;;;;;;16.80;48.52;101421.00;6290128;22;20014;-79
2021/01/07 04:54:12;;;;;;;0.47;0.40;;;;;;;16.80;48.35;101423.59;6289659;22;20023;-79
2021/01/07 04:56:37;;;;;;;0.60;0.40;;;;;;;16.81;48.40;101422.75;6263663;22;20016;-79
2021/01/07 04:59:02;;;;;;;0.70;0.40;;;;;;;16.81;48.44;101421.88;6288430;22;20008;-80
2021/01/07 05:01:28;;;;;;;0.60;0.52;;;;;;;16.81;48.52;101412.34;6263130;22;20007;-80
2021/01/07 05:03:56;;;;;;;0.40;0.40;;;;;;;16.81;48.35;101417.56;6289251;22;20074;-77
2021/01/07 05:06:25;;;;;;;0.40;0.40;;;;;;;16.81;48.46;101408.88;6287940;22;20000;-79
2021/01/07 05:09:01;;;;;;;0.50;0.50;;;;;;;16.82;48.68;101408.03;6289824;22;20041;-79
2021/01/07 05:11:30;;;;;;;0.90;0.55;;;;;;;16.82;48.54;101408.88;6262511;22;20007;-79
2021/01/07 05:14:00;;;;;;;0.60;0.55;;;;;;;16.83;48.54;101409.75;6256529;22;20030;-80
2021/01/07 05:16:27;;;;;;;0.85;0.50;;;;;;;16.82;48.83;101415.81;6256277;23;20316;-77
2021/01/07 05:18:53;;;;;;;0.57;0.40;;;;;;;16.82;48.47;101414.06;6254442;23;20008;-77
2021/01/07 05:21:20;;;;;;;1.08;0.57;;;;;;;16.83;48.57;101414.94;6281690;22;20008;-77
2021/01/07 05:26:25;;;;;;;0.68;0.50;;;;;;;16.82;48.50;101408.88;6285180;22;20023;-77
2021/01/07 05:47:10;;;;;;;1.10;0.60;;;;;;;16.83;48.64;101389.84;6263755;22;20023;-81
2021/01/07 05:49:37;;;;;;;0.40;0.40;;;;;;;16.85;48.71;101405.41;6288735;22;20016;-82
2021/01/07 05:52:07;;;;;;;3.42;0.50;;;;;;;16.83;48.85;101400.22;6239240;22;20026;-80
2021/01/07 05:54:34;;;;;;;0.82;0.40;;;;;;;16.87;48.41;101401.09;6291276;22;20023;-80
2021/01/07 05:57:05;;;;;;;0.90;0.50;;;;;;;16.84;48.75;101391.56;6264638;22;20000;-80
2021/01/07 05:59:32;;;;;;;0.52;0.40;;;;;;;16.86;48.75;101404.56;6258385;22;20006;-80
2021/01/07 06:02:04;;;;;;;1.95;0.38;;;;;;;16.87;48.76;101401.09;6259639;22;20004;-80
2021/01/07 06:04:33;;;;;;;1.90;0.30;;;;;;;16.88;48.84;101400.25;6237349;22;20004;-81
2021/01/07 06:07:03;;;;;;;1.88;0.30;;;;;;;16.89;48.88;101406.31;6210710;22;20008;-80
2021/01/07 06:09:33;;;;;;;12.50;0.80;;;;;;;17.04;49.42;101407.19;6267361;22;20369;-80
2021/01/07 06:12:01;;;;;;;4.78;0.90;;;;;;;17.19;49.53;101403.75;6295000;22;20003;-81
2021/01/07 06:14:27;;;;;;;3.03;0.70;;;;;;;17.23;49.65;101405.50;6266719;22;20012;-82
2021/01/07 06:16:54;;;;;;;4.63;0.88;;;;;;;17.26;49.47;101394.22;6266042;22;20030;-81
2021/01/07 06:19:35;;;;;;;6.03;0.80;;;;;;;17.27;49.59;101396.84;6265211;22;20038;-81
2021/01/07 06:22:06;;;;;;;4.13;0.60;;;;;;;17.24;49.54;101399.41;6265563;22;20007;-80
2021/01/07 06:24:34;;;;;;;2.60;0.70;;;;;;;17.25;49.62;101401.16;6266243;22;20004;-79
2021/01/07 06:27:29;;;;;;;2.53;0.63;;;;;;;17.26;49.80;101394.22;6284952;22;20000;-77
2021/01/07 06:30:19;;;;;;;2.53;0.73;;;;;;;17.27;49.58;101390.78;6284996;22;20050;-78
2021/01/07 06:33:28;;;;;;;3.47;0.65;;;;;;;17.27;49.62;101391.63;6262122;22;20031;-77
2021/01/07 06:36:09;;;;;;;2.33;0.60;;;;;;;17.25;49.59;101392.50;6294081;22;20034;-81
2021/01/07 06:38:47;;;;;;;2.13;0.70;;;;;;;17.24;49.59;101394.22;6272639;22;19988;-81
2021/01/07 06:41:25;;;;;;;3.58;0.50;;;;;;;17.27;49.66;101393.38;6255930;22;20000;-81
2021/01/07 06:43:53;;;;;;;2.40;0.55;;;;;;;17.28;49.63;101392.50;6250304;22;20014;-81
2021/01/07 06:46:47;;;;;;;3.67;0.85;;;;;;;17.26;49.69;101389.03;6299342;22;20030;-81
2021/01/07 06:57:58;;;;;;;3.00;0.70;;;;;;;17.28;49.92;101392.50;6299841;22;19907;-80
2021/01/07 07:00:26;;;;;;;3.88;0.82;;;;;;;17.30;49.83;101397.69;6294568;22;20016;-80
2021/01/07 07:03:09;;;;;;;4.07;0.70;;;;;;;17.30;49.59;101400.31;6243719;22;20008;-80
2021/01/07 07:05:54;;;;;;;3.40;0.68;;;;;;;17.30;49.86;101398.56;6247355;22;20003;-81
2021/01/07 07:08:34;;;;;;;2.85;0.90;;;;;;;17.31;49.70;101391.63;6290741;22;20299;-77
2021/01/07 07:11:28;;;;;;;3.13;0.80;;;;;;;17.31;49.80;101392.50;6269381;22;20010;-78
2021/01/07 07:14:05;;;;;;;2.05;0.70;;;;;;;17.32;49.61;101391.63;6266896;22;20054;-77
2021/01/07 07:16:35;;;;;;;1.83;0.80;;;;;;;17.31;50.11;101376.91;6271431;22;20064;-78
2021/01/07 07:23:11;;;;;;;3.08;0.75;;;;;;;17.31;49.71;101382.09;6302183;22;20022;-81
2021/01/07 07:26:05;;;;;;;2.03;0.85;;;;;;;17.32;49.69;101388.16;6238285;23;20001;-79
2021/01/07 07:28:34;;;;;;;1.08;0.50;;;;;;;17.33;49.61;101392.50;6240036;23;19988;-81
2021/01/07 07:31:00;;;;;;;1.20;0.60;;;;;;;17.33;49.42;101395.94;6236749;23;20005;-80
2021/01/07 07:33:39;;;;;;;2.45;0.80;;;;;;;17.32;49.76;101396.84;6210932;23;20491;-81
2021/01/07 07:36:06;;;;;;;3.80;0.63;;;;;;;17.35;49.62;101393.34;6237302;23;20015;-81
2021/01/07 07:38:40;;;;;;;2.08;0.85;;;;;;;17.34;49.88;101397.69;6238042;23;20031;-82
2021/01/07 07:41:08;;;;;;;5.10;0.60;;;;;;;17.34;49.83;101392.50;6236077;23;20005;-80
2021/01/07 07:43:34;;;;;;;3.92;0.70;;;;;;;17.33;49.76;101395.94;6213911;23;20048;-80
2021/01/07 07:49:06;;;;;;;1.70;0.70;;;;;;;17.33;49.68;101401.16;6331487;22;20007;-80
2021/01/07 07:51:45;;;;;;;2.53;0.85;;;;;;;17.35;49.60;101403.75;6305020;22;20032;-82
2021/01/07 07:54:13;;;;;;;1.85;0.65;;;;;;;17.34;49.70;101412.44;6294043;22;20019;-80
2021/01/07 07:56:40;;;;;;;1.88;0.60;;;;;;;17.33;49.89;101406.34;6285820;22;20019;-80
2021/01/07 07:59:11;;;;;;;2.35;0.70;;;;;;;17.34;49.75;101418.50;6289650;22;20045;-81
2021/01/07 08:01:59;;;;;;;1.50;0.70;;;;;;;17.37;49.75;101428.03;6300605;22;20015;-79
2021/01/07 08:07:23;;;;;;;3.53;0.50;;;;;;;17.38;49.66;101424.59;6329858;22;20041;-82
2021/01/07 08:15:46;;;;;;;1.75;0.68;;;;;;;17.44;49.31;101429.78;6311922;22;20030;-78
2021/01/07 08:21:09;;;;;;;2.38;0.63;;;;;;;17.46;49.30;101431.53;6319392;22;20018;-78
2021/01/07 08:23:35;;;;;;;2.22;0.50;;;;;;;17.47;49.44;101442.81;6319043;22;20000;-76
2021/01/07 08:26:02;;;;;;;2.40;0.65;;;;;;;17.45;49.44;101448.00;6293291;22;20128;-76
2021/01/07 08:28:33;;;;;;;0.68;0.50;;;;;;;17.45;49.44;101431.53;6265868;22;20486;-77
2021/01/07 08:31:03;;;;;;;5.40;0.70;;;;;;;17.45;49.32;101439.34;6285703;22;20090;-79
2021/01/07 08:33:29;;;;;;;3.03;0.70;;;;;;;17.44;49.24;101440.19;6288825;22;20000;-80
2021/01/07 08:36:02;;;;;;;3.78;0.60;;;;;;;17.44;49.07;101442.78;6289993;22;20022;-79
2021/01/07 08:38:33;;;;;;;2.90;0.60;;;;;;;17.44;49.50;101434.97;6315895;22;20051;-78
2021/01/07 08:41:24;;;;;;;3.78;0.70;;;;;;;17.44;49.26;101437.59;6285341;22;20011;-72
2021/01/07 08:43:51;;;;;;;1.77;0.70;;;;;;;17.43;49.23;101441.06;6282246;22;20034;-79
2021/01/07 08:46:18;;;;;;;2.70;0.63;;;;;;;17.44;49.36;101437.59;6283214;22;20008;-74
2021/01/07 08:48:56;;;;;;;2.92;0.60;;;;;;;17.43;49.33;101441.06;6312397;22;20377;-79
2021/01/07 08:51:22;;;;;;;2.25;0.70;;;;;;;17.42;49.19;101444.50;6314429;22;19999;-79
2021/01/07 08:53:52;;;;;;;2.25;0.65;;;;;;;17.43;49.15;101439.31;6310004;22;20003;-79
2021/01/07 08:56:29;;;;;;;1.83;0.60;;;;;;;17.43;49.32;101441.94;6258517;22;20011;-76
2021/01/07 08:59:17;;;;;;;1.42;0.63;;;;;;;17.43;49.17;101438.47;6310715;22;20418;-74
2021/01/07 09:01:44;;;;;;;1.70;0.60;;;;;;;17.43;49.24;101431.53;6317437;22;20003;-78
2021/01/07 09:04:29;;;;;;;0.95;0.55;;;;;;;17.44;48.90;101429.78;6300002;22;20326;-78
2021/01/07 09:07:13;;;;;;;1.50;0.70;;;;;;;17.45;49.01;101426.31;6285034;22;20361;-80
2021/01/07 09:09:42;;;;;;;1.35;0.75;;;;;;;17.46;48.85;101425.44;6278865;22;20014;-79
2021/01/07 09:12:14;;;;;;;1.67;0.60;;;;;;;17.46;48.97;101425.44;6281147;22;19999;-80
2021/01/07 09:14:52;;;;;;;2.78;0.52;;;;;;;17.47;49.15;101435.00;6280613;22;20042;-79
2021/01/07 09:17:20;;;;;;;0.75;0.40;;;;;;;17.47;48.94;101425.44;6291385;22;20030;-77
2021/01/07 09:19:48;;;;;;;1.10;0.50;;;;;;;17.47;48.92;101435.00;6302616;22;20022;-80
2021/01/07 09:22:22;;;;;;;1.20;0.63;;;;;;;17.47;49.04;101428.06;6304819;22;20008;-78
2021/01/07 09:24:48;;;;;;;1.23;0.60;;;;;;;17.47;49.15;101433.25;6301051;22;20000;-78
2021/01/07 09:27:19;;;;;;;0.90;0.50;;;;;;;17.47;48.99;101430.66;6303273;22;20004;-77
2021/01/07 09:29:45;;;;;;;1.85;0.60;;;;;;;17.47;48.96;101432.41;6327535;22;20003;-76
2021/01/07 09:32:11;;;;;;;1.23;0.50;;;;;;;17.48;48.94;101428.91;6332237;22;20004;-78
2021/01/07 09:34:38;;;;;;;2.92;0.47;;;;;;;17.49;48.90;101430.66;6330950;22;20025;-76
2021/01/07 09:37:15;;;;;;;1.00;0.50;;;;;;;17.48;48.71;101432.41;6332286;22;20007;-73
2021/01/07 09:39:41;;;;;;;1.30;0.50;;;;;;;17.52;48.73;101437.59;6305308;22;20015;-74
2021/01/07 09:42:07;;;;;;;0.98;0.50;;;;;;;17.51;48.66;101430.66;6331358;22;19987;-77
2021/01/07 09:44:33;;;;;;;1.13;0.60;;;;;;;17.52;48.66;101424.59;6303603;22;20071;-75
2021/01/07 09:46:59;;;;;;;0.47;0.40;;;;;;;17.52;48.66;101422.00;6295762;22;20034;-77
2021/01/07 09:49:26;;;;;;;1.45;0.70;;;;;;;17.51;48.77;101422.84;6256240;22;20011;-75
2021/01/07 09:51:52;;;;;;;1.25;0.60;;;;;;;17.49;48.75;101433.28;6281912;22;20575;-76
2021/01/07 09:54:18;;;;;;;0.85;0.55;;;;;;;17.48;48.80;101432.41;6308004;22;19995;-75
2021/01/07 09:56:43;;;;;;;0.95;0.40;;;;;;;17.47;48.59;101435.84;6307332;22;20045;-76
2021/01/07 09:59:09;;;;;;;1.58;0.40;;;;;;;17.47;48.83;101435.00;6307502;22;20430;-77
2021/01/07 10:01:34;;;;;;;0.50;0.40;;;;;;;17.46;48.85;101434.16;6256222;22;20048;-77
2021/01/07 10:03:59;;;;;;;0.85;0.50;;;;;;;17.45;48.85;101442.78;6308551;22;20012;-76
2021/01/07 10:06:25;;;;;;;1.10;0.50;;;;;;;17.44;48.72;101424.56;6308865;22;19999;-77
2021/01/07 10:08:51;;;;;;;2.00;0.60;;;;;;;17.44;48.76;101424.56;6282446;22;20074;-77
2021/01/07 10:11:16;;;;;;;0.93;0.40;;;;;;;17.42;48.90;101427.19;6283693;22;20003;-77
2021/01/07 10:13:42;;;;;;;0.50;0.40;;;;;;;17.42;48.77;101422.00;6283798;22;20053;-77
2021/01/07 10:16:14;;;;;;;1.08;0.57;;;;;;;17.42;48.96;101423.69;6258726;22;20015;-76
2021/01/07 10:18:40;;;;;;;1.83;0.50;;;;;;;17.41;48.84;101419.38;6310660;22;20072;-75
2021/01/07 10:21:09;;;;;;;0.60;0.47;;;;;;;17.40;48.92;101423.72;6256871;22;20019;-75
2021/01/07 10:23:35;;;;;;;1.13;0.60;;;;;;;17.40;48.73;101417.66;6285676;22;20007;-75
2021/01/07 10:26:01;;;;;;;1.17;0.30;;;;;;;17.39;48.85;101411.56;6286470;22;20082;-73
2021/01/07 10:28:27;;;;;;;0.77;0.50;;;;;;;17.39;48.90;101416.78;6288110;22;20007;-75
2021/01/07 10:30:53;;;;;;;1.20;0.40;;;;;;;17.38;48.96;101414.19;6314841;22;20018;-73
2021/01/07 10:33:19;;;;;;;1.33;0.63;;;;;;;17.39;48.72;101421.97;6286853;22;20006;-75
2021/01/07 10:35:45;;;;;;;2.13;0.65;;;;;;;17.39;48.73;101408.09;6291197;22;20015;-77
2021/01/07 10:38:12;;;;;;;1.02;0.40;;;;;;;17.40;48.96;101407.25;6285111;22;20007;-77
2021/01/07 10:40:44;;;;;;;1.40;0.52;;;;;;;17.41;48.73;101407.22;6284429;22;20056;-76
2021/01/07 10:43:12;;;;;;;1.07;0.40;;;;;;;17.45;48.61;101408.97;6311965;22;20000;-77
2021/01/07 10:45:38;;;;;;;2.25;0.70;;;;;;;17.48;48.45;101402.91;6285105;22;20418;-75
2021/01/07 10:48:10;;;;;;;0.90;0.50;;;;;;;17.51;48.49;101395.09;6284313;22;20007;-77
2021/01/07 10:50:36;;;;;;;0.82;0.47;;;;;;;17.52;48.39;101395.97;6311372;22;19995;-75
2021/01/07 10:53:23;;;;;;;0.98;0.52;;;;;;;17.54;48.51;101391.63;6258152;22;20014;-78
2021/01/07 10:56:44;;;;;;;2.08;0.57;;;;;;;17.56;48.51;101395.09;6265151;22;20003;-77
2021/01/07 10:59:50;;;;;;;1.40;0.60;;;;;;;17.58;48.32;101388.16;6307480;22;20009;-76
2021/01/07 11:02:28;;;;;;;3.22;0.52;;;;;;;17.58;48.41;101391.63;6282741;22;20057;-77
2021/01/07 11:05:09;;;;;;;0.90;0.45;;;;;;;17.60;48.33;101387.28;6282033;22;20062;-77
2021/01/07 11:07:43;;;;;;;1.00;0.60;;;;;;;17.60;48.43;101381.22;6283951;22;20007;-78
2021/01/07 11:10:10;;;;;;;0.82;0.50;;;;;;;17.62;48.30;101382.94;6313414;22;20115;-75
2021/01/07 11:13:08;;;;;;;1.10;0.40;;;;;;;17.64;47.98;101380.34;6285106;22;20346;-77
2021/01/07 11:15:36;;;;;;;2.05;0.60;;;;;;;17.64;48.14;101380.34;6263145;22;20015;-77
2021/01/07 11:18:24;;;;;;;2.00;0.40;;;;;;;17.66;47.98;101379.47;6317368;22;20448;-77
2021/01/07 11:20:55;;;;;;;2.30;0.60;;;;;;;17.67;47.98;101369.94;6313936;22;20081;-75
2021/01/07 11:23:21;;;;;;;1.38;0.70;;;;;;;17.67;48.18;101369.94;6281923;22;20000;-74
2021/01/07 11:25:48;;;;;;;1.35;0.40;;;;;;;17.68;47.87;101379.44;6309357;22;20010;-78
2021/01/07 11:28:18;;;;;;;1.45;0.65;;;;;;;17.67;47.98;101367.31;6257812;22;20015;-80
2021/01/07 11:30:43;;;;;;;1.00;0.60;;;;;;;17.68;47.95;101364.72;6286126;22;20046;-78
2021/01/07 11:33:09;;;;;;;1.50;0.60;;;;;;;17.71;47.82;101365.59;6311203;22;20003;-79
2021/01/07 11:35:35;;;;;;;0.60;0.40;;;;;;;17.70;47.94;101364.69;6258598;22;20003;-79
2021/01/07 11:38:03;;;;;;;1.20;0.50;;;;;;;17.71;47.64;101357.78;6284078;22;20034;-79
2021/01/07 11:40:35;;;;;;;1.35;0.50;;;;;;;17.71;47.72;101358.66;6283423;22;20011;-77
2021/01/07 11:43:22;;;;;;;1.02;0.50;;;;;;;17.72;47.72;101360.38;6283104;22;20030;-79
2021/01/07 11:45:55;;;;;;;2.33;0.50;;;;;;;17.75;47.68;101359.50;6285972;22;20007;-79
2021/01/07 11:48:23;;;;;;;1.70;0.55;;;;;;;17.73;47.94;101350.84;6286332;22;19999;-79
2021/01/07 11:50:57;;;;;;;1.65;0.60;;;;;;;17.74;47.68;101344.75;6313031;22;20490;-80
2021/01/07 11:53:24;;;;;;;0.70;0.50;;;;;;;17.74;47.83;101345.63;6284698;22;20382;-79
2021/01/07 11:55:50;;;;;;;0.50;0.40;;;;;;;17.75;47.60;101351.72;6283917;22;20003;-77
2021/01/07 11:58:18;;;;;;;1.10;0.60;;;;;;;17.75;47.49;101352.56;6284028;22;20022;-78
2021/01/07 12:00:44;;;;;;;1.83;0.47;;;;;;;17.75;47.71;101349.97;6284896;22;20033;-79
2021/01/07 12:03:12;;;;;;;3.70;0.57;;;;;;;17.75;47.53;101347.38;6285911;22;19999;-80
2021/01/07 12:05:38;;;;;;;1.00;0.50;;;;;;;17.74;47.81;101332.59;6261384;22;20013;-76
2021/01/07 12:08:03;;;;;;;1.15;0.60;;;;;;;17.75;47.74;101330.88;6285369;22;20003;-80
2021/01/07 12:10:37;;;;;;;0.40;0.30;;;;;;;17.75;47.76;101330.88;6310626;22;19999;-77
2021/01/07 12:13:21;;;;;;;1.00;0.45;;;;;;;17.75;47.54;101326.53;6315612;22;20042;-78
2021/01/07 12:15:50;;;;;;;1.25;0.40;;;;;;;17.73;47.44;101324.81;6318069;22;20026;-76
2021/01/07 12:18:16;;;;;;;1.80;0.60;;;;;;;17.71;47.61;101329.16;6290917;22;20003;-77
2021/01/07 12:20:42;;;;;;;2.67;0.52;;;;;;;17.71;47.93;101321.34;6291758;22;20041;-78
2021/01/07 12:23:09;;;;;;;0.88;0.50;;;;;;;17.71;47.64;101317.00;6288277;22;20038;-79
2021/01/07 12:25:38;;;;;;;1.05;0.40;;;;;;;17.68;47.65;101317.88;6310414;22;19999;-76
2021/01/07 12:28:06;;;;;;;0.40;0.40;;;;;;;17.66;47.72;101317.00;6284632;22;20012;-79
2021/01/07 12:30:36;;;;;;;1.20;0.50;;;;;;;17.66;47.93;101318.75;6310478;22;20149;-79
2021/01/07 12:33:18;;;;;;;0.73;0.40;;;;;;;17.66;47.98;101318.75;6286477;22;20014;-80
2021/01/07 12:35:58;;;;;;;1.17;0.57;;;;;;;17.66;47.77;101305.75;6284950;22;20015;-79
2021/01/07 12:38:48;;;;;;;1.02;0.40;;;;;;;17.66;48.01;101304.00;6284008;22;20042;-80
2021/01/07 12:41:20;;;;;;;1.50;0.50;;;;;;;17.64;47.90;101312.69;6311482;22;20007;-80
2021/01/07 12:43:51;;;;;;;1.08;0.45;;;;;;;17.61;47.86;101313.53;6283574;22;20035;-80
2021/01/07 12:46:21;;;;;;;0.65;0.40;;;;;;;17.60;47.80;101316.16;6309473;22;20426;-78